createdAt,value
2023-01-06T00:00:00.453Z,7.8
2023-01-06T00:01:01.441Z,7.8
2023-01-06T00:02:00.488Z,7.8
2023-01-06T00:03:00.720Z,7.8
2023-01-06T00:04:00.933Z,7.8
2023-01-06T00:05:00.476Z,7.8
2023-01-06T00:06:01.466Z,7.8
2023-01-06T00:07:00.492Z,7.8
2023-01-06T00:08:00.465Z,7.8
2023-01-06T00:09:02.776Z,7.8
2023-01-06T00:10:00.502Z,7.8
2023-01-06T00:11:04.717Z,7.8
2023-01-06T00:12:00.472Z,7.7
2023-01-06T00:13:00.477Z,7.7
2023-01-06T00:14:00.582Z,7.7
2023-01-06T00:15:00.670Z,7.7
2023-01-06T00:16:04.743Z,7.7
2023-01-06T00:17:00.482Z,7.6
2023-01-06T00:18:00.454Z,7.6
2023-01-06T00:19:00.424Z,7.6
2023-01-06T00:20:00.456Z,7.6
2023-01-06T00:21:01.303Z,7.6
2023-01-06T00:22:00.548Z,7.6
2023-01-06T00:23:00.479Z,7.6
2023-01-06T00:24:00.485Z,7.6
2023-01-06T00:25:00.453Z,7.6
2023-01-06T00:26:00.683Z,7.6
2023-01-06T00:27:00.518Z,7.5
2023-01-06T00:28:00.464Z,7.5
2023-01-06T00:29:00.423Z,7.5
2023-01-06T00:30:00.524Z,7.5
2023-01-06T00:31:08.852Z,7.5
2023-01-06T00:32:01.352Z,7.5
2023-01-06T00:33:00.480Z,7.5
2023-01-06T00:34:00.448Z,7.5
2023-01-06T00:35:00.526Z,7.5
2023-01-06T00:36:00.701Z,7.5
2023-01-06T00:37:00.699Z,7.5
2023-01-06T00:38:00.766Z,7.5
2023-01-06T00:39:00.468Z,7.5
2023-01-06T00:40:00.476Z,7.5
2023-01-06T00:41:02.122Z,7.5
2023-01-06T00:42:00.473Z,7.5
2023-01-06T00:43:00.458Z,7.5
2023-01-06T00:44:01.096Z,7.5
2023-01-06T00:45:00.410Z,7.5
2023-01-06T00:46:00.796Z,7.5
2023-01-06T00:47:00.990Z,7.5
2023-01-06T00:48:00.696Z,7.5
2023-01-06T00:49:05.611Z,7.4
2023-01-06T00:50:00.462Z,7.4
2023-01-06T00:51:00.463Z,7.4
2023-01-06T00:52:00.480Z,7.4
2023-01-06T00:53:00.603Z,7.5
2023-01-06T00:54:00.969Z,7.5
2023-01-06T00:55:00.458Z,7.5
2023-01-06T00:56:00.909Z,7.5
2023-01-06T00:57:00.490Z,7.5
2023-01-06T00:58:00.476Z,7.4
2023-01-06T00:59:01.121Z,7.4
2023-01-06T01:00:00.725Z,7.4
2023-01-06T01:01:04.790Z,7.4
2023-01-06T01:02:00.787Z,7.4
2023-01-06T01:03:00.528Z,7.4
2023-01-06T01:04:00.843Z,7.4
2023-01-06T01:05:00.871Z,7.4
2023-01-06T01:06:00.958Z,7.4
2023-01-06T01:07:00.554Z,7.4
2023-01-06T01:08:00.480Z,7.4
2023-01-06T01:09:00.556Z,7.4
2023-01-06T01:10:00.650Z,7.4
2023-01-06T01:11:04.181Z,7.4
2023-01-06T01:12:00.826Z,7.4
2023-01-06T01:13:00.485Z,7.4
2023-01-06T01:14:00.489Z,7.4
2023-01-06T01:15:00.495Z,7.4
2023-01-06T01:16:05.019Z,7.4
2023-01-06T01:17:00.480Z,7.3
2023-01-06T01:18:00.500Z,7.3
2023-01-06T01:19:00.550Z,7.3
2023-01-06T01:20:00.514Z,7.2
2023-01-06T01:21:00.773Z,7.2
2023-01-06T01:22:00.534Z,7.2
2023-01-06T01:23:00.516Z,7.2
2023-01-06T01:24:00.524Z,7.2
2023-01-06T01:25:00.475Z,7.1
2023-01-06T01:26:00.562Z,7.1
2023-01-06T01:27:00.522Z,7.1
2023-01-06T01:28:00.638Z,7.1
2023-01-06T01:29:00.721Z,7.1
2023-01-06T01:30:00.525Z,7.1
2023-01-06T01:31:00.829Z,7.1
2023-01-06T01:32:00.716Z,7.1
2023-01-06T01:33:00.509Z,7.1
2023-01-06T01:34:00.642Z,7.1
2023-01-06T01:35:00.489Z,7.1
2023-01-06T01:36:08.803Z,7.2
2023-01-06T01:37:00.473Z,7.2
2023-01-06T01:38:00.495Z,7.2
2023-01-06T01:39:00.495Z,7.2
2023-01-06T01:40:00.587Z,7.2
2023-01-06T01:41:00.533Z,7.3
2023-01-06T01:42:00.551Z,7.3
2023-01-06T01:43:00.723Z,7.3
2023-01-06T01:44:01.962Z,7.3
2023-01-06T01:45:03.146Z,7.3
2023-01-06T01:46:00.552Z,7.3
2023-01-06T01:47:00.773Z,7.2
2023-01-06T01:48:00.416Z,7.2
2023-01-06T01:49:03.760Z,7.2
2023-01-06T01:50:04.556Z,7.1
2023-01-06T01:51:03.877Z,7.1
2023-01-06T01:52:00.741Z,7.1
2023-01-06T01:53:03.183Z,7.0
2023-01-06T01:54:04.773Z,7.0
2023-01-06T01:55:01.254Z,7.0
2023-01-06T01:56:03.673Z,6.9
2023-01-06T01:57:10.012Z,6.9
2023-01-06T01:58:07.433Z,6.9
2023-01-06T01:59:04.988Z,6.9
2023-01-06T02:00:02.266Z,6.8
2023-01-06T02:01:00.679Z,6.8
2023-01-06T02:02:01.037Z,6.8
2023-01-06T02:03:00.769Z,6.8
2023-01-06T02:04:01.506Z,6.8
2023-01-06T02:05:01.356Z,6.8
2023-01-06T02:06:01.706Z,6.8
2023-01-06T02:07:01.452Z,6.8
2023-01-06T02:08:04.960Z,6.8
2023-01-06T02:09:07.836Z,6.7
2023-01-06T02:10:00.428Z,6.7
2023-01-06T02:11:00.988Z,6.7
2023-01-06T02:12:01.114Z,6.7
2023-01-06T02:13:00.494Z,6.7
2023-01-06T02:14:07.600Z,6.7
2023-01-06T02:15:00.531Z,6.6
2023-01-06T02:16:08.317Z,6.6
2023-01-06T02:17:10.327Z,6.6
2023-01-06T02:18:03.793Z,6.6
2023-01-06T02:19:00.441Z,6.6
2023-01-06T02:20:10.311Z,6.6
2023-01-06T02:21:01.522Z,6.6
2023-01-06T02:22:10.357Z,6.6
2023-01-06T02:23:07.884Z,6.6
2023-01-06T02:24:10.299Z,6.6
2023-01-06T02:25:10.338Z,6.6
2023-01-06T02:26:01.477Z,6.6
2023-01-06T02:27:08.081Z,6.6
2023-01-06T02:28:01.545Z,6.6
2023-01-06T02:29:10.389Z,6.5
2023-01-06T02:30:10.337Z,6.5
2023-01-06T02:31:10.350Z,6.5
2023-01-06T02:32:07.843Z,6.5
2023-01-06T02:33:10.334Z,6.6
2023-01-06T02:34:01.474Z,6.6
2023-01-06T02:35:10.465Z,6.6
2023-01-06T02:36:00.435Z,6.6
2023-01-06T02:37:10.336Z,6.6
2023-01-06T02:38:10.311Z,6.7
2023-01-06T02:39:09.796Z,6.7
2023-01-06T02:40:03.819Z,6.7
2023-01-06T02:41:10.360Z,6.7
2023-01-06T02:42:07.271Z,6.7
2023-01-06T02:43:10.388Z,6.7
2023-01-06T02:44:03.082Z,6.7
2023-01-06T02:45:01.464Z,6.7
2023-01-06T02:46:07.869Z,6.7
2023-01-06T02:47:00.454Z,6.7
2023-01-06T02:48:07.954Z,6.7
2023-01-06T02:49:07.904Z,6.7
2023-01-06T02:50:10.311Z,6.7
2023-01-06T02:51:03.885Z,6.8
2023-01-06T02:52:00.472Z,6.8
2023-01-06T02:53:01.520Z,6.8
2023-01-06T02:54:10.332Z,6.8
2023-01-06T02:55:05.496Z,6.8
2023-01-06T02:56:01.404Z,6.8
2023-01-06T02:57:04.547Z,6.8
2023-01-06T02:58:06.969Z,6.8
2023-01-06T02:59:04.196Z,6.8
2023-01-06T03:00:03.813Z,6.8
2023-01-06T03:01:03.941Z,6.8
2023-01-06T03:02:01.849Z,6.8
2023-01-06T03:03:05.028Z,6.8
2023-01-06T03:04:03.029Z,6.8
2023-01-06T03:05:01.784Z,6.8
2023-01-06T03:06:04.161Z,6.8
2023-01-06T03:07:02.509Z,6.8
2023-01-06T03:08:04.104Z,6.8
2023-01-06T03:09:00.709Z,6.8
2023-01-06T03:10:01.496Z,6.8
2023-01-06T03:11:00.987Z,6.8
2023-01-06T03:12:05.245Z,6.8
2023-01-06T03:13:01.503Z,6.8
2023-01-06T03:14:10.363Z,6.7
2023-01-06T03:15:00.559Z,6.7
2023-01-06T03:16:00.785Z,6.7
2023-01-06T03:17:00.791Z,6.6
2023-01-06T03:18:00.800Z,6.6
2023-01-06T03:19:00.541Z,6.6
2023-01-06T03:20:00.480Z,6.5
2023-01-06T03:21:04.211Z,6.5
2023-01-06T03:22:01.065Z,6.4
2023-01-06T03:23:00.475Z,6.4
2023-01-06T03:24:00.761Z,6.4
2023-01-06T03:25:00.686Z,6.4
2023-01-06T03:26:00.616Z,6.4
2023-01-06T03:27:01.423Z,6.4
2023-01-06T03:28:00.456Z,6.4
2023-01-06T03:29:01.202Z,6.4
2023-01-06T03:30:01.613Z,6.4
2023-01-06T03:31:10.362Z,6.4
2023-01-06T03:32:04.281Z,6.4
2023-01-06T03:33:06.925Z,6.4
2023-01-06T03:34:00.450Z,6.4
2023-01-06T03:35:10.073Z,6.4
2023-01-06T03:36:03.793Z,6.4
2023-01-06T03:37:10.505Z,6.4
2023-01-06T03:38:10.331Z,6.4
2023-01-06T03:39:00.409Z,6.4
2023-01-06T03:40:08.432Z,6.4
2023-01-06T03:41:01.451Z,6.4
2023-01-06T03:42:08.707Z,6.3
2023-01-06T03:43:06.037Z,6.3
2023-01-06T03:44:10.305Z,6.3
2023-01-06T03:45:04.543Z,6.3
2023-01-06T03:46:10.265Z,6.3
2023-01-06T03:47:04.333Z,6.3
2023-01-06T03:48:10.321Z,6.3
2023-01-06T03:49:00.402Z,6.3
2023-01-06T03:50:05.899Z,6.2
2023-01-06T03:51:10.341Z,6.2
2023-01-06T03:52:10.327Z,6.2
2023-01-06T03:53:10.269Z,6.2
2023-01-06T03:54:00.436Z,6.3
2023-01-06T03:55:07.399Z,6.3
2023-01-06T03:56:10.307Z,6.3
2023-01-06T03:57:03.905Z,6.3
2023-01-06T03:58:02.295Z,6.3
2023-01-06T03:59:03.526Z,6.4
2023-01-06T04:00:05.359Z,6.4
2023-01-06T04:01:00.958Z,6.4
2023-01-06T04:02:01.013Z,6.4
2023-01-06T04:03:01.134Z,6.4
2023-01-06T04:04:00.728Z,6.4
2023-01-06T04:05:01.551Z,6.3
2023-01-06T04:06:00.449Z,6.3
2023-01-06T04:07:00.432Z,6.3
2023-01-06T04:08:00.456Z,6.2
2023-01-06T04:09:00.550Z,6.2
2023-01-06T04:10:00.539Z,6.2
2023-01-06T04:11:00.695Z,6.2
2023-01-06T04:12:00.466Z,6.2
2023-01-06T04:13:00.431Z,6.2
2023-01-06T04:14:00.664Z,6.2
2023-01-06T04:15:00.480Z,6.2
2023-01-06T04:16:00.507Z,6.2
2023-01-06T04:17:00.555Z,6.2
2023-01-06T04:18:00.457Z,6.2
2023-01-06T04:19:00.473Z,6.2
2023-01-06T04:20:00.585Z,6.2
2023-01-06T04:21:00.458Z,6.2
2023-01-06T04:22:00.497Z,6.2
2023-01-06T04:23:00.572Z,6.2
2023-01-06T04:24:00.465Z,6.2
2023-01-06T04:25:00.890Z,6.2
2023-01-06T04:26:00.481Z,6.1
2023-01-06T04:27:00.458Z,6.1
2023-01-06T04:28:00.423Z,6.1
2023-01-06T04:29:00.751Z,6.1
2023-01-06T04:30:00.541Z,6.1
2023-01-06T04:31:00.952Z,6.1
2023-01-06T04:32:00.475Z,6.1
2023-01-06T04:33:00.566Z,6.1
2023-01-06T04:34:00.435Z,6.1
2023-01-06T04:35:00.475Z,6.2
2023-01-06T04:36:00.812Z,6.2
2023-01-06T04:37:00.458Z,6.2
2023-01-06T04:38:01.098Z,6.2
2023-01-06T04:39:00.473Z,6.2
2023-01-06T04:40:00.518Z,6.2
2023-01-06T04:41:00.499Z,6.2
2023-01-06T04:42:00.513Z,6.2
2023-01-06T04:43:00.467Z,6.2
2023-01-06T04:44:00.444Z,6.2
2023-01-06T04:45:00.447Z,6.3
2023-01-06T04:46:00.643Z,6.3
2023-01-06T04:47:00.566Z,6.2
2023-01-06T04:48:00.969Z,6.2
2023-01-06T04:49:00.468Z,6.2
2023-01-06T04:50:00.444Z,6.2
2023-01-06T04:51:03.036Z,6.2
2023-01-06T04:52:00.397Z,6.2
2023-01-06T04:53:00.464Z,6.2
2023-01-06T04:54:00.651Z,6.1
2023-01-06T04:55:00.454Z,6.1
2023-01-06T04:56:02.962Z,6.1
2023-01-06T04:57:00.523Z,6.1
2023-01-06T04:58:00.673Z,6.1
2023-01-06T04:59:00.515Z,6.1
2023-01-06T05:00:00.478Z,6.1
2023-01-06T05:01:05.472Z,6.1
2023-01-06T05:02:00.510Z,6.1
2023-01-06T05:03:00.611Z,6.0
2023-01-06T05:04:00.655Z,6.0
2023-01-06T05:05:00.469Z,6.0
2023-01-06T05:06:02.300Z,6.0
2023-01-06T05:07:00.475Z,6.0
2023-01-06T05:08:00.468Z,6.0
2023-01-06T05:09:00.758Z,5.9
2023-01-06T05:10:00.451Z,5.9
2023-01-06T05:11:01.354Z,5.9
2023-01-06T05:12:00.444Z,5.9
2023-01-06T05:13:00.458Z,5.9
2023-01-06T05:14:00.669Z,5.9
2023-01-06T05:15:00.486Z,5.9
2023-01-06T05:16:00.829Z,5.9
2023-01-06T05:17:00.460Z,5.9
2023-01-06T05:18:00.530Z,5.9
2023-01-06T05:19:00.527Z,5.9
2023-01-06T05:20:00.765Z,5.9
2023-01-06T05:21:00.500Z,5.9
2023-01-06T05:22:00.488Z,5.9
2023-01-06T05:23:00.477Z,5.9
2023-01-06T05:24:00.462Z,5.9
2023-01-06T05:25:00.446Z,5.9
2023-01-06T05:26:00.621Z,5.9
2023-01-06T05:27:00.484Z,5.9
2023-01-06T05:28:00.477Z,5.9
2023-01-06T05:29:00.489Z,5.9
2023-01-06T05:30:00.524Z,5.9
2023-01-06T05:31:01.141Z,5.9
2023-01-06T05:32:00.596Z,5.9
2023-01-06T05:33:00.462Z,5.9
2023-01-06T05:34:00.492Z,5.9
2023-01-06T05:35:00.596Z,6.0
2023-01-06T05:36:01.471Z,6.0
2023-01-06T05:37:00.454Z,6.0
2023-01-06T05:38:00.475Z,6.0
2023-01-06T05:39:00.494Z,6.0
2023-01-06T05:40:00.400Z,6.0
2023-01-06T05:41:00.892Z,6.0
2023-01-06T05:42:00.650Z,6.1
2023-01-06T05:43:00.449Z,6.1
2023-01-06T05:44:00.525Z,6.1
2023-01-06T05:45:00.440Z,6.1
2023-01-06T05:46:05.562Z,6.1
2023-01-06T05:47:00.508Z,6.2
2023-01-06T05:48:00.425Z,6.2
2023-01-06T05:49:01.252Z,6.2
2023-01-06T05:50:00.435Z,6.2
2023-01-06T05:51:02.170Z,6.2
2023-01-06T05:52:00.461Z,6.3
2023-01-06T05:53:00.603Z,6.3
2023-01-06T05:54:00.497Z,6.3
2023-01-06T05:55:00.448Z,6.4
2023-01-06T05:56:01.372Z,6.4
2023-01-06T05:57:00.475Z,6.4
2023-01-06T05:58:00.529Z,6.4
2023-01-06T05:59:00.995Z,6.5
2023-01-06T06:00:00.588Z,6.5
2023-01-06T06:01:00.940Z,6.5
2023-01-06T06:02:00.512Z,6.5
2023-01-06T06:03:00.469Z,6.5
2023-01-06T06:04:00.681Z,6.6
2023-01-06T06:05:00.669Z,6.6
2023-01-06T06:06:04.795Z,6.6
2023-01-06T06:07:00.453Z,6.6
2023-01-06T06:08:00.451Z,6.6
2023-01-06T06:09:00.457Z,6.6
2023-01-06T06:10:00.502Z,6.6
2023-01-06T06:11:04.710Z,6.6
2023-01-06T06:12:00.441Z,6.6
2023-01-06T06:13:00.475Z,6.6
2023-01-06T06:14:00.492Z,6.6
2023-01-06T06:15:00.987Z,6.6
2023-01-06T06:16:09.044Z,6.6
2023-01-06T06:17:00.462Z,6.6
2023-01-06T06:18:01.204Z,6.6
2023-01-06T06:19:00.465Z,6.6
2023-01-06T06:20:00.470Z,6.6
2023-01-06T06:21:01.093Z,6.6
2023-01-06T06:22:00.658Z,6.6
2023-01-06T06:23:00.460Z,6.6
2023-01-06T06:24:00.488Z,6.6
2023-01-06T06:25:00.497Z,6.6
2023-01-06T06:26:00.969Z,6.6
2023-01-06T06:27:00.497Z,6.6
2023-01-06T06:28:00.532Z,6.6
2023-01-06T06:29:00.453Z,6.6
2023-01-06T06:30:00.463Z,6.6
2023-01-06T06:31:09.960Z,6.6
2023-01-06T06:32:00.502Z,6.6
2023-01-06T06:33:00.493Z,6.6
2023-01-06T06:34:01.019Z,6.6
2023-01-06T06:35:00.503Z,6.6
2023-01-06T06:36:00.813Z,6.6
2023-01-06T06:37:00.635Z,6.6
2023-01-06T06:38:00.513Z,6.6
2023-01-06T06:39:00.733Z,6.6
2023-01-06T06:40:00.511Z,6.6
2023-01-06T06:41:00.468Z,6.5
2023-01-06T06:42:00.488Z,6.5
2023-01-06T06:43:00.446Z,6.5
2023-01-06T06:44:00.549Z,6.5
2023-01-06T06:45:00.723Z,6.5
2023-01-06T06:46:00.671Z,6.5
2023-01-06T06:47:00.450Z,6.5
2023-01-06T06:48:00.595Z,6.5
2023-01-06T06:49:00.525Z,6.5
2023-01-06T06:50:00.501Z,6.5
2023-01-06T06:51:01.893Z,6.4
2023-01-06T06:52:00.449Z,6.4
2023-01-06T06:53:00.858Z,6.4
2023-01-06T06:54:00.478Z,6.4
2023-01-06T06:55:00.382Z,6.4
2023-01-06T06:56:01.009Z,6.4
2023-01-06T06:57:00.639Z,6.4
2023-01-06T06:58:00.493Z,6.4
2023-01-06T06:59:00.680Z,6.4
2023-01-06T07:00:00.463Z,6.4
2023-01-06T07:01:08.796Z,6.4
2023-01-06T07:02:00.594Z,6.4
2023-01-06T07:03:00.577Z,6.3
2023-01-06T07:04:00.528Z,6.4
2023-01-06T07:05:00.475Z,6.4
2023-01-06T07:06:01.485Z,6.4
2023-01-06T07:07:00.449Z,6.3
2023-01-06T07:08:00.499Z,6.3
2023-01-06T07:09:00.811Z,6.3
2023-01-06T07:10:00.583Z,6.3
2023-01-06T07:11:00.817Z,6.3
2023-01-06T07:12:00.461Z,6.3
2023-01-06T07:13:00.430Z,6.3
2023-01-06T07:14:00.415Z,6.3
2023-01-06T07:15:00.523Z,6.4
2023-01-06T07:16:00.498Z,6.4
2023-01-06T07:17:00.503Z,6.4
2023-01-06T07:18:01.244Z,6.4
2023-01-06T07:19:00.431Z,6.4
2023-01-06T07:20:00.490Z,6.4
2023-01-06T07:21:00.692Z,6.4
2023-01-06T07:22:00.461Z,6.4
2023-01-06T07:23:00.479Z,6.5
2023-01-06T07:24:00.457Z,6.5
2023-01-06T07:25:00.576Z,6.5
2023-01-06T07:26:01.118Z,6.6
2023-01-06T07:27:00.486Z,6.6
2023-01-06T07:28:00.620Z,6.6
2023-01-06T07:29:00.463Z,6.6
2023-01-06T07:30:00.696Z,6.6
2023-01-06T07:31:00.792Z,6.6
2023-01-06T07:32:00.555Z,6.6
2023-01-06T07:33:00.961Z,6.6
2023-01-06T07:34:00.491Z,6.7
2023-01-06T07:35:00.459Z,6.7
2023-01-06T07:36:00.491Z,6.7
2023-01-06T07:37:00.772Z,6.7
2023-01-06T07:38:02.418Z,6.7
2023-01-06T07:39:00.461Z,6.7
2023-01-06T07:40:00.671Z,6.7
2023-01-06T07:41:00.505Z,6.7
2023-01-06T07:42:00.459Z,6.7
2023-01-06T07:43:04.789Z,6.7
2023-01-06T07:44:00.486Z,6.8
2023-01-06T07:45:00.485Z,6.8
2023-01-06T07:46:00.532Z,6.8
2023-01-06T07:47:00.494Z,6.9
2023-01-06T07:48:00.733Z,6.9
2023-01-06T07:49:00.430Z,7.0
2023-01-06T07:50:00.772Z,7.0
2023-01-06T07:51:00.503Z,7.0
2023-01-06T07:52:00.474Z,7.1
2023-01-06T07:53:01.341Z,7.2
2023-01-06T07:54:00.551Z,7.4
2023-01-06T07:55:00.449Z,7.5
2023-01-06T07:56:00.498Z,7.7
2023-01-06T07:57:00.439Z,7.9
2023-01-06T07:58:03.419Z,8.0
2023-01-06T07:59:00.485Z,8.2
2023-01-06T08:00:00.499Z,8.4
2023-01-06T08:01:04.580Z,8.6
2023-01-06T08:02:00.590Z,8.8
2023-01-06T08:03:02.881Z,8.9
2023-01-06T08:04:00.647Z,9.1
2023-01-06T08:05:00.657Z,9.3
2023-01-06T08:06:04.756Z,9.4
2023-01-06T08:07:00.548Z,9.5
2023-01-06T08:08:00.495Z,9.6
2023-01-06T08:09:00.842Z,9.8
2023-01-06T08:10:00.528Z,9.9
2023-01-06T08:11:00.460Z,10.0
2023-01-06T08:12:00.693Z,10.1
2023-01-06T08:13:00.471Z,10.2
2023-01-06T08:14:00.492Z,10.4
2023-01-06T08:15:00.626Z,10.6
2023-01-06T08:16:04.391Z,10.8
2023-01-06T08:17:00.488Z,10.9
2023-01-06T08:18:00.469Z,11.0
2023-01-06T08:19:02.734Z,11.1
2023-01-06T08:20:00.518Z,11.2
2023-01-06T08:21:01.135Z,11.4
2023-01-06T08:22:00.454Z,11.5
2023-01-06T08:23:01.164Z,11.6
2023-01-06T08:24:00.494Z,11.5
2023-01-06T08:25:00.441Z,11.5
2023-01-06T08:26:03.788Z,11.4
2023-01-06T08:27:00.595Z,11.3
2023-01-06T08:28:00.851Z,11.3
2023-01-06T08:29:00.594Z,11.3
2023-01-06T08:30:00.550Z,11.3
2023-01-06T08:31:00.614Z,11.4
2023-01-06T08:32:09.955Z,11.4
2023-01-06T08:33:00.449Z,11.4
2023-01-06T08:34:00.459Z,11.5
2023-01-06T08:35:00.428Z,11.6
2023-01-06T08:36:02.022Z,11.6
2023-01-06T08:37:00.392Z,11.7
2023-01-06T08:38:00.719Z,11.7
2023-01-06T08:39:00.466Z,11.7
2023-01-06T08:40:00.494Z,11.7
2023-01-06T08:41:01.166Z,11.7
2023-01-06T08:42:00.459Z,11.6
2023-01-06T08:43:00.456Z,11.6
2023-01-06T08:44:00.546Z,11.6
2023-01-06T08:45:00.505Z,11.7
2023-01-06T08:46:03.728Z,11.8
2023-01-06T08:47:00.498Z,11.8
2023-01-06T08:48:00.474Z,11.9
2023-01-06T08:49:00.649Z,12.0
2023-01-06T08:50:00.513Z,12.0
2023-01-06T08:51:01.274Z,12.0
2023-01-06T08:52:00.482Z,12.0
2023-01-06T08:53:00.442Z,12.0
2023-01-06T08:54:00.465Z,12.0
2023-01-06T08:55:00.540Z,12.0
2023-01-06T08:56:00.451Z,12.0
2023-01-06T08:57:00.508Z,12.0
2023-01-06T08:58:00.473Z,12.0
2023-01-06T08:59:01.411Z,12.0
2023-01-06T09:00:00.894Z,12.0
2023-01-06T09:01:00.486Z,12.0
2023-01-06T09:02:00.925Z,12.1
2023-01-06T09:03:00.454Z,12.1
2023-01-06T09:04:01.672Z,12.2
2023-01-06T09:05:00.591Z,12.3
2023-01-06T09:06:00.463Z,12.3
2023-01-06T09:07:00.438Z,12.4
2023-01-06T09:08:00.480Z,12.4
2023-01-06T09:09:00.472Z,12.5
2023-01-06T09:10:00.557Z,12.5
2023-01-06T09:11:05.027Z,12.6
2023-01-06T09:12:00.489Z,12.6
2023-01-06T09:13:00.431Z,12.7
2023-01-06T09:14:00.568Z,12.8
2023-01-06T09:15:00.755Z,12.9
2023-01-06T09:16:03.595Z,13.0
2023-01-06T09:17:00.477Z,13.1
2023-01-06T09:18:00.466Z,13.3
2023-01-06T09:19:00.489Z,13.6
2023-01-06T09:20:00.464Z,13.8
2023-01-06T09:21:00.530Z,13.9
2023-01-06T09:22:01.191Z,14.1
2023-01-06T09:23:00.471Z,14.3
2023-01-06T09:24:00.516Z,14.6
2023-01-06T09:25:00.496Z,14.8
2023-01-06T09:26:00.494Z,15.1
2023-01-06T09:27:00.476Z,15.3
2023-01-06T09:28:00.484Z,15.5
2023-01-06T09:29:00.425Z,15.7
2023-01-06T09:30:00.487Z,15.9
2023-01-06T09:31:00.728Z,16.1
2023-01-06T09:32:00.480Z,16.3
2023-01-06T09:33:00.791Z,16.5
2023-01-06T09:34:00.475Z,16.8
2023-01-06T09:35:00.507Z,17.1
2023-01-06T09:36:00.666Z,17.4
2023-01-06T09:37:00.453Z,17.6
2023-01-06T09:38:00.505Z,17.7
2023-01-06T09:39:00.469Z,17.9
2023-01-06T09:40:00.516Z,18.2
2023-01-06T09:41:10.301Z,18.4
2023-01-06T09:42:10.267Z,18.7
2023-01-06T09:43:10.048Z,18.9
2023-01-06T09:44:03.837Z,19.1
2023-01-06T09:45:02.492Z,19.1
2023-01-06T09:46:02.276Z,19.3
2023-01-06T09:47:01.972Z,19.5
2023-01-06T09:48:02.344Z,19.7
2023-01-06T09:49:10.346Z,20.0
2023-01-06T09:50:06.282Z,20.2
2023-01-06T09:51:02.572Z,20.5
2023-01-06T09:52:10.304Z,20.6
2023-01-06T09:53:05.231Z,20.8
2023-01-06T09:54:05.484Z,21.1
2023-01-06T09:55:03.310Z,21.2
2023-01-06T09:56:02.733Z,20.9
2023-01-06T09:57:03.454Z,20.8
2023-01-06T09:58:04.603Z,20.8
2023-01-06T09:59:07.125Z,20.8
2023-01-06T10:00:01.833Z,20.9
2023-01-06T10:01:03.647Z,21.1
2023-01-06T10:02:02.139Z,21.2
2023-01-06T10:03:00.464Z,21.3
2023-01-06T10:04:00.550Z,21.5
2023-01-06T10:05:00.841Z,21.5
2023-01-06T10:06:07.967Z,21.5
2023-01-06T10:07:00.467Z,21.6
2023-01-06T10:08:10.542Z,21.5
2023-01-06T10:09:10.331Z,21.4
2023-01-06T10:10:08.918Z,21.4
2023-01-06T10:11:08.575Z,21.5
2023-01-06T10:12:03.814Z,21.7
2023-01-06T10:13:05.636Z,21.8
2023-01-06T10:14:10.343Z,21.8
2023-01-06T10:15:10.303Z,21.7
2023-01-06T10:16:00.491Z,21.7
2023-01-06T10:17:10.695Z,21.7
2023-01-06T10:18:03.787Z,21.8
2023-01-06T10:19:00.458Z,22.0
2023-01-06T10:20:10.356Z,22.0
2023-01-06T10:21:04.523Z,21.9
2023-01-06T10:22:01.494Z,22.0
2023-01-06T10:23:01.546Z,22.1
2023-01-06T10:24:00.470Z,22.2
2023-01-06T10:25:10.311Z,22.1
2023-01-06T10:26:05.264Z,21.7
2023-01-06T10:27:10.345Z,21.2
2023-01-06T10:28:07.685Z,21.1
2023-01-06T10:29:05.161Z,20.9
2023-01-06T10:30:02.099Z,20.7
2023-01-06T10:31:02.413Z,20.8
2023-01-06T10:32:01.841Z,21.0
2023-01-06T10:33:00.811Z,21.2
2023-01-06T10:34:01.011Z,21.6
2023-01-06T10:35:00.903Z,21.8
2023-01-06T10:36:00.494Z,22.0
2023-01-06T10:37:02.518Z,21.9
2023-01-06T10:38:04.233Z,21.9
2023-01-06T10:39:02.509Z,22.1
2023-01-06T10:40:10.295Z,22.2
2023-01-06T10:41:05.033Z,22.3
2023-01-06T10:42:10.331Z,22.5
2023-01-06T10:43:04.283Z,22.4
2023-01-06T10:44:00.518Z,22.2
2023-01-06T10:45:00.555Z,22.2
2023-01-06T10:46:00.502Z,22.3
2023-01-06T10:47:00.499Z,22.4
2023-01-06T10:48:01.933Z,22.6
2023-01-06T10:49:01.619Z,22.6
2023-01-06T10:50:00.672Z,22.8
2023-01-06T10:51:10.333Z,22.4
2023-01-06T10:52:01.099Z,22.4
2023-01-06T10:53:00.562Z,22.5
2023-01-06T10:54:02.671Z,22.7
2023-01-06T10:55:03.661Z,22.5
2023-01-06T10:56:01.068Z,22.3
2023-01-06T10:57:03.116Z,22.5
2023-01-06T10:58:04.532Z,22.8
2023-01-06T10:59:05.176Z,23.1
2023-01-06T11:00:10.434Z,23.2
2023-01-06T11:01:06.691Z,23.1
2023-01-06T11:02:00.705Z,22.8
2023-01-06T11:03:31.228Z,23.1
2023-01-06T11:04:08.910Z,23.6
2023-01-06T11:05:01.045Z,23.8
2023-01-06T11:06:05.346Z,23.8
2023-01-06T11:07:01.550Z,23.9
2023-01-06T11:08:00.545Z,23.9
2023-01-06T11:09:06.391Z,23.9
2023-01-06T11:10:10.314Z,23.9
2023-01-06T11:11:00.739Z,23.8
2023-01-06T11:12:02.123Z,23.4
2023-01-06T11:13:02.020Z,23.4
2023-01-06T11:14:02.059Z,23.2
2023-01-06T11:15:02.740Z,22.9
2023-01-06T11:16:02.381Z,22.7
2023-01-06T11:17:02.295Z,22.2
2023-01-06T11:18:01.274Z,21.9
2023-01-06T11:19:02.705Z,21.5
2023-01-06T11:20:06.101Z,21.2
2023-01-06T11:21:02.444Z,21.0
2023-01-06T11:22:00.529Z,21.0
2023-01-06T11:23:10.339Z,20.9
2023-01-06T11:24:08.279Z,21.0
2023-01-06T11:25:00.517Z,21.1
2023-01-06T11:26:03.847Z,20.9
2023-01-06T11:27:10.348Z,20.6
2023-01-06T11:28:10.344Z,20.5
2023-01-06T11:29:10.383Z,20.3
2023-01-06T11:30:10.323Z,20.3
2023-01-06T11:31:04.703Z,20.2
2023-01-06T11:32:04.223Z,20.1
2023-01-06T11:33:00.510Z,20.0
2023-01-06T11:34:02.218Z,20.1
2023-01-06T11:35:02.667Z,20.3
2023-01-06T11:36:09.024Z,20.3
2023-01-06T11:37:00.521Z,20.5
2023-01-06T11:38:00.478Z,20.3
2023-01-06T11:39:02.511Z,20.2
2023-01-06T11:40:05.618Z,20.2
2023-01-06T11:41:07.271Z,20.3
2023-01-06T11:42:04.033Z,20.3
2023-01-06T11:43:02.648Z,20.2
2023-01-06T11:44:05.596Z,20.3
2023-01-06T11:45:00.571Z,20.5
2023-01-06T11:46:03.372Z,20.4
2023-01-06T11:47:03.456Z,20.1
2023-01-06T11:48:01.976Z,19.9
2023-01-06T11:49:03.179Z,20.0
2023-01-06T11:50:01.004Z,20.1
2023-01-06T11:51:01.833Z,20.0
2023-01-06T11:52:02.106Z,19.9
2023-01-06T11:53:02.130Z,20.1
2023-01-06T11:54:00.713Z,20.3
2023-01-06T11:55:02.246Z,20.5
2023-01-06T11:56:00.471Z,20.5
2023-01-06T11:57:08.463Z,20.4
2023-01-06T11:58:07.109Z,20.4
2023-01-06T11:59:07.253Z,20.3
2023-01-06T12:00:03.878Z,20.5
2023-01-06T12:01:06.513Z,20.4
2023-01-06T12:02:00.703Z,20.5
2023-01-06T12:03:10.433Z,20.5
2023-01-06T12:04:09.700Z,20.7
2023-01-06T12:12:05.456Z,20.7
2023-01-06T12:13:00.523Z,20.6
2023-01-06T12:14:27.036Z,20.5
2023-01-06T12:15:01.959Z,20.3
2023-01-06T12:16:03.266Z,20.4
2023-01-06T12:17:00.634Z,20.3
2023-01-06T12:18:03.406Z,20.2
2023-01-06T12:19:01.218Z,20.2
2023-01-06T12:20:05.041Z,20.3
2023-01-06T12:21:01.911Z,20.6
2023-01-06T12:22:00.874Z,20.9
2023-01-06T12:23:04.014Z,21.0
2023-01-06T12:24:03.973Z,20.9
2023-01-06T12:25:01.110Z,21.1
2023-01-06T12:26:02.512Z,21.2
2023-01-06T12:27:02.752Z,21.4
2023-01-06T12:28:04.660Z,21.4
2023-01-06T12:29:01.498Z,21.6
2023-01-06T12:30:02.657Z,21.7
2023-01-06T12:31:00.563Z,21.8
2023-01-06T12:32:07.293Z,21.8
2023-01-06T12:33:02.889Z,21.7
2023-01-06T12:34:03.969Z,21.7
2023-01-06T12:35:01.215Z,21.9
2023-01-06T12:36:04.415Z,21.6
2023-01-06T12:37:00.442Z,21.6
2023-01-06T12:38:06.133Z,21.7
2023-01-06T12:39:03.045Z,21.8
2023-01-06T12:40:07.999Z,21.7
2023-01-06T12:41:03.893Z,21.8
2023-01-06T12:42:01.521Z,21.7
2023-01-06T12:43:10.413Z,21.9
2023-01-06T12:44:10.346Z,21.7
2023-01-06T12:45:03.029Z,21.5
2023-01-06T12:46:05.786Z,21.7
2023-01-06T12:47:00.438Z,21.7
2023-01-06T12:48:02.843Z,22.0
2023-01-06T12:49:03.697Z,22.2
2023-01-06T12:50:10.347Z,22.3
2023-01-06T12:51:06.626Z,22.8
2023-01-06T12:52:03.113Z,23.0
2023-01-06T12:53:19.728Z,23.1
2023-01-06T12:54:04.493Z,22.9
2023-01-06T12:55:00.798Z,22.8
2023-01-06T12:56:10.313Z,22.6
2023-01-06T12:57:10.337Z,22.5
2023-01-06T12:58:05.467Z,22.5
2023-01-06T12:59:10.396Z,22.8
2023-01-06T13:00:10.458Z,22.9
2023-01-06T13:01:04.731Z,23.1
2023-01-06T13:02:10.419Z,22.8
2023-01-06T13:03:10.337Z,22.9
2023-01-06T13:04:07.894Z,23.0
2023-01-06T13:05:00.517Z,23.2
2023-01-06T13:06:10.331Z,23.1
2023-01-06T13:07:09.562Z,23.0
2023-01-06T13:08:10.322Z,23.0
2023-01-06T13:09:06.600Z,23.0
2023-01-06T13:10:01.594Z,23.0
2023-01-06T13:11:03.839Z,22.9
2023-01-06T13:12:01.459Z,23.0
2023-01-06T13:13:10.324Z,22.9
2023-01-06T13:14:10.292Z,23.1
2023-01-06T13:15:04.045Z,23.1
2023-01-06T13:16:04.062Z,23.2
2023-01-06T13:17:06.701Z,23.1
2023-01-06T13:18:05.473Z,23.3
2023-01-06T13:19:07.543Z,23.1
2023-01-06T13:20:02.021Z,23.3
2023-01-06T13:21:05.223Z,23.4
2023-01-06T13:22:03.106Z,23.5
2023-01-06T13:23:03.804Z,23.8
2023-01-06T13:24:07.537Z,24.0
2023-01-06T13:25:00.425Z,24.1
2023-01-06T13:26:10.231Z,23.9
2023-01-06T13:27:07.925Z,24.0
2023-01-06T13:28:00.441Z,24.0
2023-01-06T13:29:07.839Z,23.9
2023-01-06T13:30:00.460Z,24.0
2023-01-06T13:31:00.511Z,24.2
2023-01-06T13:32:03.792Z,24.4
2023-01-06T13:33:01.616Z,24.4
2023-01-06T13:34:07.818Z,24.2
2023-01-06T13:35:07.829Z,24.2
2023-01-06T13:36:10.329Z,24.2
2023-01-06T13:37:10.312Z,24.4
2023-01-06T13:38:10.346Z,24.5
2023-01-06T13:39:00.483Z,24.6
2023-01-06T13:40:07.125Z,24.4
2023-01-06T13:41:01.543Z,24.4